Time;durP1;ratioP1;P1;durP2;ratioP2;P2;SDS_P1;SDS_P2;PMS_P1;PMS_P2;Temp;Humidity;BMP_temperature;BMP_pressure;BME280_temperature;BME280_humidity;BME280_pressure;Samples;Min_cycle;Max_cycle;Signal;HPM_P1;HPM_P2
2021/12/26 00:01:46;;;;;;;3.13;2.57;;;-0.50;72.10;;;;;;5045256;28;20194;-70
2021/12/26 00:04:15;;;;;;;3.10;2.23;;;-0.40;72.00;;;;;;5037578;28;20650;-70
2021/12/26 00:06:43;;;;;;;3.17;2.60;;;-0.30;72.10;;;;;;5059209;28;20217;-70
2021/12/26 00:09:11;;;;;;;2.93;2.10;;;-0.40;72.30;;;;;;5033928;28;20233;-70
2021/12/26 00:12:03;;;;;;;2.87;2.40;;;-0.40;72.90;;;;;;5051454;28;20186;-70
2021/12/26 00:14:30;;;;;;;3.40;2.33;;;-0.40;72.50;;;;;;5034948;28;20198;-70
2021/12/26 00:16:57;;;;;;;2.63;2.40;;;-0.40;73.40;;;;;;5041873;28;20218;-70
2021/12/26 00:19:25;;;;;;;3.20;2.73;;;-0.30;73.60;;;;;;5029859;28;20203;-70
2021/12/26 00:21:52;;;;;;;3.10;2.80;;;-0.30;72.90;;;;;;5036369;28;20203;-70
2021/12/26 00:24:20;;;;;;;3.30;2.40;;;-0.40;73.00;;;;;;5033686;28;20195;-70
2021/12/26 00:26:47;;;;;;;3.57;2.77;;;-0.20;74.00;;;;;;5033401;28;20220;-70
2021/12/26 00:29:16;;;;;;;3.77;2.47;;;-0.20;73.00;;;;;;5044761;28;20205;-70
2021/12/26 00:31:43;;;;;;;2.83;2.63;;;-0.10;73.20;;;;;;5051929;28;20660;-70
2021/12/26 00:34:11;;;;;;;7.43;2.63;;;0.00;73.50;;;;;;5033410;28;20211;-70
2021/12/26 00:36:38;;;;;;;4.27;2.53;;;-0.10;73.10;;;;;;5037331;28;20235;-70
2021/12/26 00:39:09;;;;;;;3.60;2.47;;;-0.30;72.80;;;;;;5043771;28;20186;-70
2021/12/26 00:41:39;;;;;;;3.33;2.57;;;-0.10;73.80;;;;;;5054140;28;20532;-70
2021/12/26 00:44:07;;;;;;;4.57;3.60;;;-0.10;73.50;;;;;;5057735;28;20204;-70
2021/12/26 00:46:35;;;;;;;8.10;5.67;;;-0.30;73.60;;;;;;5058177;28;20210;-70
2021/12/26 00:49:04;;;;;;;10.67;7.77;;;-0.20;73.80;;;;;;5029807;28;20597;-70
2021/12/26 00:51:32;;;;;;;12.13;8.33;;;-0.20;74.70;;;;;;5036597;28;20203;-71
2021/12/26 00:57:47;;;;;;;12.60;9.90;;;-0.40;74.80;;;;;;5047756;28;20195;-70
2021/12/26 01:00:18;;;;;;;10.20;7.97;;;-0.30;74.50;;;;;;5037464;28;20190;-70
2021/12/26 01:02:49;;;;;;;15.67;9.03;;;-0.40;75.30;;;;;;5038858;28;20556;-71
2021/12/26 01:05:17;;;;;;;8.70;5.07;;;-0.30;75.30;;;;;;5037092;28;20194;-70
2021/12/26 01:07:56;;;;;;;7.80;4.90;;;-0.70;76.70;;;;;;5056791;28;20218;-70
2021/12/26 01:10:25;;;;;;;3.57;3.13;;;-0.60;77.10;;;;;;5022313;28;20186;-70
2021/12/26 01:12:54;;;;;;;3.37;2.90;;;-0.90;76.40;;;;;;5032916;28;20210;-71
2021/12/26 01:15:24;;;;;;;3.47;2.73;;;-0.90;76.80;;;;;;5044913;28;20205;-70
2021/12/26 01:17:57;;;;;;;3.50;2.90;;;-0.80;77.50;;;;;;5029993;28;20214;-70
2021/12/26 01:20:59;;;;;;;2.90;2.60;;;-0.70;78.10;;;;;;5024086;28;20190;-70
2021/12/26 01:23:28;;;;;;;4.53;2.53;;;-0.50;77.00;;;;;;5043988;28;20190;-70
2021/12/26 01:25:56;;;;;;;4.20;2.80;;;-0.50;77.50;;;;;;5036723;28;20222;-71
2021/12/26 01:28:28;;;;;;;3.93;3.00;;;-0.70;77.80;;;;;;5028866;28;20216;-70
2021/12/26 01:31:01;;;;;;;3.70;2.97;;;-0.90;78.50;;;;;;5033566;28;20201;-70
2021/12/26 01:33:31;;;;;;;5.10;3.07;;;-0.90;78.50;;;;;;5030384;28;20210;-70
2021/12/26 01:36:22;;;;;;;4.83;3.00;;;-0.70;79.10;;;;;;5035196;28;20218;-71
2021/12/26 01:39:21;;;;;;;4.40;2.83;;;-0.40;79.20;;;;;;5051414;28;20198;-70
2021/12/26 01:42:10;;;;;;;4.70;3.20;;;-0.30;78.20;;;;;;5060718;28;20278;-71
2021/12/26 01:45:07;;;;;;;4.67;2.67;;;-0.40;77.20;;;;;;5046335;28;20218;-70
2021/12/26 01:47:46;;;;;;;4.03;2.70;;;-0.40;77.60;;;;;;5029041;28;20230;-70
2021/12/26 01:50:15;;;;;;;4.67;3.70;;;-0.50;77.00;;;;;;5027872;28;20208;-70
2021/12/26 01:52:43;;;;;;;4.87;3.43;;;-0.40;77.30;;;;;;5047654;28;20206;-70
2021/12/26 01:55:23;;;;;;;3.30;3.00;;;-0.30;77.40;;;;;;5030166;28;20217;-71
2021/12/26 01:57:58;;;;;;;3.93;2.43;;;-0.60;77.00;;;;;;5027823;28;20220;-70
2021/12/26 02:00:26;;;;;;;4.33;2.90;;;-0.80;78.30;;;;;;5028677;28;20218;-71
2021/12/26 02:02:53;;;;;;;3.80;2.80;;;-0.60;78.50;;;;;;5047437;28;20202;-71
2021/12/26 02:05:23;;;;;;;3.43;2.73;;;-0.90;77.80;;;;;;5039244;28;20202;-70
2021/12/26 02:07:53;;;;;;;4.23;2.40;;;-0.70;78.50;;;;;;5026569;28;20234;-70
2021/12/26 02:10:20;;;;;;;3.17;2.87;;;-0.90;78.10;;;;;;5028565;28;20203;-70
2021/12/26 02:12:48;;;;;;;5.53;2.87;;;-0.90;78.90;;;;;;5033918;28;20206;-70
2021/12/26 02:15:16;;;;;;;3.17;2.70;;;-0.80;79.40;;;;;;5036038;28;20199;-70
2021/12/26 02:17:51;;;;;;;5.50;2.67;;;-0.60;79.20;;;;;;5029344;28;20233;-70
2021/12/26 02:20:30;;;;;;;3.40;2.40;;;-0.60;78.00;;;;;;5029198;28;20661;-71
2021/12/26 02:22:59;;;;;;;2.67;2.47;;;-0.70;78.60;;;;;;5044112;28;20198;-70
2021/12/26 02:27:30;;;;;;;3.73;2.77;;;-0.70;78.30;;;;;;5043541;28;20204;-71
2021/12/26 02:28:19;;;;;;;2.63;2.30;;;-0.70;79.40;;;;;;5030877;28;20222;-70
2021/12/26 02:30:47;;;;;;;3.87;2.83;;;-0.70;79.60;;;;;;5032261;28;20216;-70
2021/12/26 02:33:16;;;;;;;3.20;2.60;;;-0.70;79.00;;;;;;5034592;28;20207;-71
2021/12/26 02:35:45;;;;;;;2.67;2.47;;;-0.60;78.70;;;;;;5053186;28;20194;-70
2021/12/26 02:38:14;;;;;;;3.50;2.70;;;-0.70;78.90;;;;;;5023651;28;20194;-71
2021/12/26 02:40:44;;;;;;;3.47;2.77;;;-0.50;78.50;;;;;;5030249;28;20224;-70
2021/12/26 02:43:14;;;;;;;3.70;2.57;;;-0.60;77.80;;;;;;5034694;28;20196;-70
2021/12/26 02:45:42;;;;;;;4.93;2.90;;;-0.60;78.20;;;;;;5040360;28;20194;-70
2021/12/26 02:48:11;;;;;;;2.83;2.50;;;-0.70;78.00;;;;;;5031701;28;20202;-70
2021/12/26 02:50:40;;;;;;;3.70;2.40;;;-0.60;78.10;;;;;;5026353;28;20210;-71
2021/12/26 02:53:12;;;;;;;3.80;2.30;;;-0.40;77.70;;;;;;5033229;28;20198;-70
2021/12/26 02:55:41;;;;;;;3.37;2.60;;;-0.60;77.80;;;;;;5065652;28;20196;-70
2021/12/26 02:58:11;;;;;;;3.37;2.53;;;-1.00;79.30;;;;;;5031237;28;20683;-71
2021/12/26 03:00:41;;;;;;;4.30;2.47;;;-0.60;78.90;;;;;;5032519;28;20202;-71
2021/12/26 03:03:09;;;;;;;4.37;2.60;;;-0.40;77.80;;;;;;5034965;28;20202;-70
2021/12/26 03:05:39;;;;;;;3.43;2.97;;;-0.40;77.40;;;;;;5034002;28;20209;-70
2021/12/26 03:08:09;;;;;;;3.67;2.60;;;-0.50;78.10;;;;;;5027049;28;20698;-70
2021/12/26 03:10:37;;;;;;;2.77;2.17;;;-0.60;77.60;;;;;;5032160;28;20223;-71
2021/12/26 03:13:08;;;;;;;4.10;2.90;;;-0.50;77.80;;;;;;5034398;28;20210;-70
2021/12/26 03:15:37;;;;;;;3.53;2.63;;;-0.50;77.80;;;;;;5048160;28;20220;-70
2021/12/26 03:18:07;;;;;;;5.33;2.67;;;-0.40;77.00;;;;;;5026649;28;20194;-70
2021/12/26 03:20:38;;;;;;;3.23;2.40;;;-0.40;78.50;;;;;;5047970;28;20190;-70
2021/12/26 03:23:07;;;;;;;3.50;2.30;;;-0.40;77.50;;;;;;5033564;28;20204;-70
2021/12/26 03:25:37;;;;;;;3.00;2.43;;;-0.60;78.60;;;;;;5030162;28;20203;-70
2021/12/26 03:28:07;;;;;;;4.50;2.63;;;-0.50;78.50;;;;;;5029688;28;20202;-70
2021/12/26 03:30:36;;;;;;;2.70;2.20;;;-0.50;77.60;;;;;;5031882;28;20593;-70
2021/12/26 03:33:06;;;;;;;3.13;2.30;;;-0.40;77.80;;;;;;5033167;28;20215;-70
2021/12/26 03:35:34;;;;;;;3.80;2.33;;;-0.40;77.20;;;;;;5036655;28;20562;-70
2021/12/26 03:38:04;;;;;;;2.90;2.50;;;-0.30;76.70;;;;;;5028311;28;20707;-71
2021/12/26 03:40:49;;;;;;;2.43;2.23;;;-0.30;76.80;;;;;;5055052;28;20198;-71
2021/12/26 03:43:16;;;;;;;2.83;2.47;;;-0.30;75.70;;;;;;5041917;28;20194;-70
2021/12/26 03:45:48;;;;;;;4.10;2.70;;;-0.50;75.50;;;;;;5039136;28;20214;-70
2021/12/26 03:48:16;;;;;;;2.70;2.50;;;-0.60;76.50;;;;;;5019616;28;20201;-71
2021/12/26 03:50:44;;;;;;;2.67;2.20;;;-0.50;76.40;;;;;;5028115;28;20221;-71
2021/12/26 03:53:12;;;;;;;2.23;2.03;;;-0.50;76.70;;;;;;5040784;28;20202;-71
2021/12/26 03:55:43;;;;;;;3.20;2.50;;;-0.60;76.70;;;;;;5033384;28;20204;-70
2021/12/26 03:58:12;;;;;;;4.17;2.50;;;-0.50;76.70;;;;;;5030762;28;20195;-70
2021/12/26 04:00:40;;;;;;;3.73;2.20;;;-0.50;77.20;;;;;;5035189;28;20189;-70
2021/12/26 04:03:08;;;;;;;2.70;2.50;;;-0.40;76.90;;;;;;5034768;28;20198;-70
2021/12/26 04:05:43;;;;;;;4.20;2.13;;;-0.30;76.30;;;;;;5033775;28;20206;-70
2021/12/26 04:08:11;;;;;;;4.17;2.50;;;-0.30;76.70;;;;;;5031850;28;20209;-70
2021/12/26 04:10:39;;;;;;;2.60;2.40;;;-0.40;76.00;;;;;;5018231;28;20224;-70
2021/12/26 04:13:06;;;;;;;4.13;2.60;;;-0.30;76.40;;;;;;5032774;28;20207;-70
2021/12/26 04:15:36;;;;;;;3.67;2.70;;;-0.40;76.60;;;;;;5033644;28;20199;-70
2021/12/26 04:18:04;;;;;;;2.97;2.30;;;-0.40;77.20;;;;;;5039216;28;20194;-70
2021/12/26 04:20:33;;;;;;;3.27;2.50;;;-0.40;77.20;;;;;;5038052;28;20218;-70
2021/12/26 04:23:01;;;;;;;2.77;2.37;;;-0.40;77.70;;;;;;5052681;28;20196;-69
2021/12/26 04:25:28;;;;;;;2.77;2.30;;;-0.60;76.90;;;;;;5037579;28;20671;-70
2021/12/26 04:27:56;;;;;;;3.10;2.30;;;-0.80;77.10;;;;;;5024766;28;20222;-70
2021/12/26 04:30:26;;;;;;;3.10;2.80;;;-0.50;77.90;;;;;;5031384;28;20222;-70
2021/12/26 04:32:55;;;;;;;4.20;2.57;;;-0.90;77.60;;;;;;5027306;28;20202;-70
2021/12/26 04:35:24;;;;;;;2.20;2.00;;;-0.80;78.50;;;;;;5038286;28;20408;-69
2021/12/26 04:37:53;;;;;;;3.10;2.40;;;-0.60;79.50;;;;;;5035761;28;20238;-70
2021/12/26 04:40:22;;;;;;;2.80;2.60;;;-0.50;78.30;;;;;;5024740;28;20207;-70
2021/12/26 04:43:16;;;;;;;2.50;2.23;;;-0.60;78.00;;;;;;5052661;28;20206;-70
2021/12/26 04:45:54;;;;;;;3.97;2.30;;;-0.30;78.30;;;;;;5053527;28;20651;-70
2021/12/26 04:48:45;;;;;;;3.67;2.37;;;-0.40;77.60;;;;;;5044316;28;20194;-70
2021/12/26 04:51:14;;;;;;;3.37;2.07;;;-0.30;77.50;;;;;;5045174;28;20226;-70
2021/12/26 04:53:43;;;;;;;4.13;2.90;;;-0.40;78.10;;;;;;5024947;28;20678;-70
2021/12/26 04:56:10;;;;;;;3.30;2.30;;;-0.40;77.80;;;;;;5017607;28;20245;-70
2021/12/26 04:58:39;;;;;;;2.90;2.60;;;-0.50;77.30;;;;;;5035623;28;20205;-70
2021/12/26 05:01:07;;;;;;;2.40;2.20;;;-0.60;78.40;;;;;;5053970;28;20195;-70
2021/12/26 05:03:34;;;;;;;4.03;2.33;;;-0.40;78.30;;;;;;5044497;28;20195;-70
2021/12/26 05:06:03;;;;;;;2.30;2.10;;;-0.60;78.60;;;;;;5038547;28;20292;-70
2021/12/26 05:08:31;;;;;;;3.00;2.47;;;-0.50;79.70;;;;;;5065966;28;20702;-70
2021/12/26 05:11:00;;;;;;;3.10;2.47;;;-0.70;80.00;;;;;;5054339;28;20199;-70
2021/12/26 05:13:27;;;;;;;3.23;2.50;;;-0.60;80.50;;;;;;5035973;28;20212;-70
2021/12/26 05:15:54;;;;;;;3.03;2.47;;;-0.70;79.70;;;;;;5059675;28;20205;-70
2021/12/26 05:18:22;;;;;;;2.40;2.00;;;-0.50;80.70;;;;;;5026679;28;20202;-70
2021/12/26 05:20:56;;;;;;;3.00;2.43;;;-0.60;79.50;;;;;;5036025;28;20194;-70
2021/12/26 05:23:30;;;;;;;2.63;2.43;;;-0.40;80.00;;;;;;5033228;28;20208;-69
2021/12/26 05:25:58;;;;;;;4.17;2.30;;;-0.40;79.70;;;;;;5033370;28;20225;-70
2021/12/26 05:28:25;;;;;;;3.20;2.83;;;-0.40;79.00;;;;;;5024228;28;20191;-70
2021/12/26 05:30:53;;;;;;;3.57;3.00;;;-0.40;79.50;;;;;;5032573;28;20210;-70
2021/12/26 05:33:26;;;;;;;5.67;2.70;;;-0.30;79.10;;;;;;5046439;28;20192;-70
2021/12/26 05:36:00;;;;;;;2.60;2.20;;;-0.30;79.30;;;;;;5046281;28;20225;-69
2021/12/26 05:38:30;;;;;;;3.43;2.60;;;-0.50;78.80;;;;;;5032801;28;20195;-70
2021/12/26 05:40:57;;;;;;;3.67;2.87;;;-0.70;79.80;;;;;;5050268;28;20195;-69
2021/12/26 05:44:11;;;;;;;3.57;2.70;;;-0.60;80.60;;;;;;5045877;28;20209;-69
2021/12/26 05:46:39;;;;;;;2.50;2.30;;;-0.30;81.20;;;;;;5028171;28;20680;-69
2021/12/26 05:49:06;;;;;;;3.10;2.30;;;-0.20;79.70;;;;;;5030038;28;20198;-70
2021/12/26 05:51:45;;;;;;;4.40;2.57;;;-0.40;79.80;;;;;;5030381;28;20222;-69
2021/12/26 05:54:37;;;;;;;4.87;2.50;;;-0.70;81.00;;;;;;5053579;28;20200;-69
2021/12/26 05:57:06;;;;;;;2.63;2.33;;;-0.40;80.90;;;;;;5056672;28;20598;-70
2021/12/26 05:59:34;;;;;;;3.30;2.50;;;-0.40;81.00;;;;;;5033085;28;20361;-69
2021/12/26 06:02:02;;;;;;;3.43;2.87;;;-0.20;81.50;;;;;;5033061;28;20186;-69
2021/12/26 06:04:30;;;;;;;2.97;2.43;;;-0.20;80.90;;;;;;5039523;28;20587;-70
2021/12/26 06:06:59;;;;;;;2.83;2.60;;;-0.40;80.80;;;;;;5037330;28;20225;-70
2021/12/26 06:09:27;;;;;;;2.63;2.20;;;-0.50;82.10;;;;;;5029682;28;20222;-69
2021/12/26 06:11:56;;;;;;;3.00;2.57;;;-0.30;82.20;;;;;;5036103;28;20709;-70
2021/12/26 06:14:24;;;;;;;3.50;2.97;;;-0.20;83.20;;;;;;5035917;28;20362;-69
2021/12/26 06:20:57;;;;;;;3.60;2.93;;;-0.20;82.60;;;;;;5004990;28;20187;-70
2021/12/26 06:23:50;;;;;;;3.50;2.37;;;-0.10;82.70;;;;;;5005104;28;20709;-70
2021/12/26 06:26:30;;;;;;;4.30;2.83;;;-0.10;82.80;;;;;;5033368;28;20722;-70
2021/12/26 06:29:21;;;;;;;3.50;2.43;;;-0.10;83.20;;;;;;5021148;28;20194;-69
2021/12/26 06:32:08;;;;;;;4.10;2.80;;;-0.10;82.60;;;;;;5075634;28;20209;-70
2021/12/26 06:34:54;;;;;;;3.30;2.50;;;-0.20;83.80;;;;;;5060593;28;20187;-70
2021/12/26 06:37:40;;;;;;;4.43;2.90;;;-0.20;84.50;;;;;;5045443;28;20229;-69
2021/12/26 06:40:26;;;;;;;3.20;2.90;;;0.00;83.90;;;;;;5052425;28;20671;-70
2021/12/26 06:43:29;;;;;;;3.80;2.73;;;0.00;83.60;;;;;;5055378;28;20198;-69
2021/12/26 06:46:18;;;;;;;4.17;2.57;;;0.00;83.30;;;;;;5059345;28;20209;-69
2021/12/26 06:49:05;;;;;;;4.60;2.53;;;-0.20;84.90;;;;;;5056798;28;20238;-69
2021/12/26 06:51:33;;;;;;;2.57;2.37;;;0.00;84.30;;;;;;5016735;28;20214;-71
2021/12/26 06:54:00;;;;;;;4.37;2.93;;;-0.20;85.10;;;;;;5040154;28;20199;-69
2021/12/26 06:56:29;;;;;;;2.97;2.67;;;0.10;86.60;;;;;;5031572;28;20927;-69
2021/12/26 06:58:56;;;;;;;3.70;2.23;;;0.20;84.40;;;;;;5030555;28;20730;-72
2021/12/26 07:01:25;;;;;;;2.80;2.20;;;1.70;99.90;;;;;;5038686;28;20195;-71
2021/12/26 07:03:54;;;;;;;4.07;2.37;;;2.70;99.80;;;;;;5037432;28;20564;-70
2021/12/26 07:06:21;;;;;;;2.90;2.63;;;2.10;90.90;;;;;;5038279;28;20221;-69
2021/12/26 07:08:50;;;;;;;3.47;3.13;;;2.40;90.90;;;;;;5043082;28;20192;-70
2021/12/26 07:11:17;;;;;;;3.70;2.80;;;2.10;92.30;;;;;;5030120;28;20217;-70
2021/12/26 07:13:45;;;;;;;4.30;2.90;;;1.50;88.00;;;;;;5034015;28;20210;-73
2021/12/26 07:16:12;;;;;;;3.07;2.73;;;0.70;89.90;;;;;;5030457;28;20587;-70
2021/12/26 07:18:43;;;;;;;3.63;3.07;;;0.20;90.60;;;;;;5038624;28;20205;-69
2021/12/26 07:21:13;;;;;;;3.90;3.10;;;0.10;91.20;;;;;;5029044;28;20212;-69
2021/12/26 07:23:49;;;;;;;3.47;2.80;;;0.20;91.70;;;;;;5028136;28;20201;-70
2021/12/26 07:26:20;;;;;;;3.13;2.83;;;0.20;91.90;;;;;;5033608;28;20568;-69
2021/12/26 07:28:54;;;;;;;5.30;3.10;;;0.20;91.90;;;;;;5043380;28;20195;-69
2021/12/26 07:31:22;;;;;;;3.63;2.83;;;0.20;91.90;;;;;;5032112;28;20221;-70
2021/12/26 07:34:12;;;;;;;4.47;3.23;;;0.20;91.80;;;;;;5001297;28;20201;-74
2021/12/26 07:36:45;;;;;;;3.20;2.90;;;0.30;92.00;;;;;;5028685;28;20219;-72
2021/12/26 07:39:19;;;;;;;3.73;2.90;;;0.30;91.70;;;;;;5005050;28;20205;-72
2021/12/26 07:41:46;;;;;;;5.30;3.53;;;0.10;92.50;;;;;;5010657;28;20218;-71
2021/12/26 07:44:33;;;;;;;4.27;2.97;;;0.10;92.30;;;;;;5030567;28;20207;-72
2021/12/26 07:47:28;;;;;;;3.87;2.90;;;0.30;92.30;;;;;;5008288;28;20222;-72
2021/12/26 07:50:00;;;;;;;4.10;3.37;;;0.30;92.10;;;;;;5007753;28;20198;-72
2021/12/26 07:52:48;;;;;;;3.37;3.07;;;0.30;92.10;;;;;;5036200;28;20214;-72
2021/12/26 07:55:34;;;;;;;3.70;3.20;;;0.20;92.70;;;;;;5037393;28;20186;-72
2021/12/26 07:58:20;;;;;;;3.53;3.17;;;0.20;92.50;;;;;;5035770;28;20195;-72
2021/12/26 08:01:06;;;;;;;3.53;3.10;;;0.20;92.30;;;;;;5020796;28;20187;-72
2021/12/26 08:03:54;;;;;;;3.47;2.70;;;0.30;92.60;;;;;;5016236;28;20213;-72
2021/12/26 08:06:49;;;;;;;3.77;3.40;;;0.50;92.40;;;;;;5020541;28;20215;-71
2021/12/26 08:09:17;;;;;;;4.73;3.27;;;0.20;92.80;;;;;;5004792;28;20198;-72
2021/12/26 08:11:44;;;;;;;4.07;3.57;;;0.40;93.10;;;;;;5012141;28;20230;-72
2021/12/26 08:14:12;;;;;;;5.67;3.27;;;0.10;93.20;;;;;;5011427;28;20210;-72
2021/12/26 08:16:40;;;;;;;4.73;3.50;;;0.10;93.40;;;;;;5010740;28;20677;-74
2021/12/26 08:19:07;;;;;;;4.23;3.27;;;0.30;93.30;;;;;;5008320;28;20206;-72
2021/12/26 08:21:40;;;;;;;4.70;3.70;;;0.10;93.50;;;;;;5026801;28;20195;-72
2021/12/26 08:24:13;;;;;;;4.90;3.53;;;0.10;94.30;;;;;;5008047;28;20198;-72
2021/12/26 08:26:41;;;;;;;3.83;3.40;;;0.40;94.00;;;;;;5028941;28;20207;-73
2021/12/26 08:29:08;;;;;;;4.13;3.73;;;0.20;94.10;;;;;;4999793;28;20204;-72
2021/12/26 08:31:36;;;;;;;5.53;3.40;;;0.20;94.30;;;;;;5021680;28;20242;-72
2021/12/26 08:34:04;;;;;;;5.13;3.93;;;0.10;94.50;;;;;;5050273;28;20562;-72
2021/12/26 08:36:31;;;;;;;4.67;3.93;;;0.00;95.10;;;;;;5031018;28;20215;-72
2021/12/26 08:38:59;;;;;;;4.63;3.87;;;0.00;95.00;;;;;;5010858;28;20203;-72
2021/12/26 08:41:27;;;;;;;5.87;3.63;;;0.00;94.80;;;;;;5015899;28;20207;-72
2021/12/26 08:43:54;;;;;;;3.97;3.57;;;0.00;95.40;;;;;;5016508;28;20202;-72
2021/12/26 08:46:23;;;;;;;4.73;3.40;;;0.10;95.10;;;;;;5013220;28;20230;-73
2021/12/26 08:48:51;;;;;;;5.13;3.80;;;0.20;95.10;;;;;;5032590;28;20202;-72
2021/12/26 08:51:18;;;;;;;5.37;3.70;;;0.10;95.60;;;;;;5011278;28;20572;-72
2021/12/26 08:53:45;;;;;;;4.23;3.73;;;0.30;95.20;;;;;;5031474;28;20199;-72
2021/12/26 08:56:13;;;;;;;4.87;4.03;;;0.30;95.20;;;;;;5011573;28;20230;-73
2021/12/26 08:58:41;;;;;;;7.03;3.80;;;0.20;95.40;;;;;;5029813;28;20198;-72
2021/12/26 09:01:09;;;;;;;5.23;3.93;;;0.30;95.50;;;;;;5013924;28;20202;-71
2021/12/26 09:03:37;;;;;;;3.70;3.30;;;0.50;95.30;;;;;;5037399;28;20221;-73
2021/12/26 09:06:05;;;;;;;4.57;3.90;;;0.60;95.10;;;;;;5022529;28;20225;-72
2021/12/26 09:08:32;;;;;;;5.97;4.60;;;0.70;94.90;;;;;;5029395;28;20206;-72
2021/12/26 09:11:00;;;;;;;6.13;4.07;;;0.60;95.00;;;;;;5014126;28;20204;-71
2021/12/26 09:13:27;;;;;;;4.67;3.83;;;0.70;95.10;;;;;;5019289;28;20223;-72
2021/12/26 09:16:00;;;;;;;6.07;4.50;;;0.60;95.10;;;;;;5025545;28;20200;-71
2021/12/26 09:18:28;;;;;;;4.47;3.70;;;0.50;95.80;;;;;;5016364;28;20199;-72
2021/12/26 09:20:58;;;;;;;5.00;4.37;;;0.40;95.70;;;;;;5020966;28;20252;-71
2021/12/26 09:23:26;;;;;;;5.83;3.87;;;0.30;96.00;;;;;;5016629;28;20568;-71
2021/12/26 09:25:53;;;;;;;4.77;3.60;;;0.70;95.90;;;;;;5018447;28;20208;-71
2021/12/26 09:28:20;;;;;;;5.37;4.30;;;0.70;95.90;;;;;;5016651;28;20565;-72
2021/12/26 09:30:48;;;;;;;5.87;4.53;;;0.50;95.70;;;;;;5031869;28;20195;-72
2021/12/26 09:33:34;;;;;;;4.33;3.90;;;0.50;96.80;;;;;;5033776;28;20207;-71
2021/12/26 09:36:02;;;;;;;5.20;4.30;;;0.50;96.40;;;;;;5020099;28;20229;-72
2021/12/26 09:38:29;;;;;;;6.63;4.60;;;0.30;96.50;;;;;;5032002;28;20202;-71
2021/12/26 09:41:06;;;;;;;4.80;4.30;;;0.40;97.10;;;;;;5008535;28;20671;-72
2021/12/26 09:43:34;;;;;;;5.67;4.40;;;0.80;97.20;;;;;;5025880;28;20194;-72
2021/12/26 09:46:01;;;;;;;5.30;4.40;;;0.80;96.10;;;;;;5053655;28;20217;-71
2021/12/26 09:48:28;;;;;;;5.60;4.90;;;0.60;96.70;;;;;;5032048;28;20195;-72
2021/12/26 09:50:57;;;;;;;5.70;4.47;;;0.60;96.90;;;;;;5031085;28;20202;-72
2021/12/26 09:53:25;;;;;;;6.47;4.47;;;0.80;96.90;;;;;;5004895;28;20222;-71
2021/12/26 09:55:52;;;;;;;7.00;4.63;;;0.90;96.70;;;;;;5015220;28;20206;-71
2021/12/26 09:58:20;;;;;;;4.93;4.43;;;1.00;96.40;;;;;;5024479;28;20198;-72
2021/12/26 10:00:48;;;;;;;6.10;4.87;;;1.20;96.30;;;;;;5013827;28;20211;-72
2021/12/26 10:03:23;;;;;;;5.80;4.73;;;0.80;96.30;;;;;;5016133;28;20207;-74
2021/12/26 10:06:09;;;;;;;5.20;4.53;;;1.00;97.10;;;;;;5031633;28;20206;-74
2021/12/26 10:08:55;;;;;;;5.40;4.87;;;1.10;96.60;;;;;;5036127;28;20216;-74
2021/12/26 10:11:31;;;;;;;7.10;5.60;;;1.20;96.90;;;;;;5017789;28;20195;-74
2021/12/26 10:14:00;;;;;;;7.37;5.77;;;1.40;96.80;;;;;;5032295;28;20219;-74
2021/12/26 10:16:30;;;;;;;5.77;4.67;;;1.30;96.70;;;;;;5032852;28;20225;-74
2021/12/26 10:18:58;;;;;;;6.10;4.70;;;1.10;97.20;;;;;;5003587;28;20212;-73
2021/12/26 10:21:30;;;;;;;5.77;4.80;;;1.20;97.60;;;;;;5018356;28;20236;-74
2021/12/26 10:24:29;;;;;;;5.73;4.60;;;1.00;97.40;;;;;;5012820;28;20195;-74
2021/12/26 10:27:22;;;;;;;5.93;5.17;;;1.10;98.10;;;;;;5024460;28;20215;-74
2021/12/26 10:29:51;;;;;;;6.20;5.10;;;1.40;97.00;;;;;;5028615;28;20195;-74
2021/12/26 10:32:21;;;;;;;6.17;5.17;;;1.50;97.20;;;;;;5032791;28;20632;-74
2021/12/26 10:34:50;;;;;;;6.13;4.87;;;1.50;97.10;;;;;;5016966;28;20290;-74
2021/12/26 10:37:24;;;;;;;6.93;5.27;;;1.70;97.00;;;;;;5010630;28;20215;-75
2021/12/26 10:40:15;;;;;;;5.97;5.37;;;1.50;97.20;;;;;;4999635;28;20226;-74
2021/12/26 10:42:49;;;;;;;5.23;4.73;;;1.90;96.80;;;;;;5014056;28;20192;-74
2021/12/26 10:45:29;;;;;;;6.33;5.27;;;2.20;96.20;;;;;;5013967;28;20210;-75
2021/12/26 10:48:40;;;;;;;6.23;5.27;;;2.20;95.90;;;;;;5010440;28;20224;-74
2021/12/26 10:51:07;;;;;;;6.17;5.17;;;2.60;95.70;;;;;;5013207;28;20195;-75
2021/12/26 10:53:36;;;;;;;6.03;5.03;;;3.00;95.20;;;;;;5014511;28;20257;-74
2021/12/26 10:56:10;;;;;;;6.50;5.40;;;3.40;94.20;;;;;;5022329;28;20228;-75
2021/12/26 10:58:37;;;;;;;6.00;5.37;;;3.70;93.50;;;;;;5027785;28;20198;-75
2021/12/26 11:01:05;;;;;;;5.90;4.70;;;3.60;93.10;;;;;;5032179;28;20205;-75
2021/12/26 11:03:38;;;;;;;6.57;5.47;;;3.60;93.60;;;;;;5024926;28;20192;-75
2021/12/26 11:06:07;;;;;;;7.00;5.47;;;3.70;93.40;;;;;;5026979;28;20220;-73
2021/12/26 11:08:39;;;;;;;7.63;6.27;;;3.30;93.60;;;;;;5002696;28;20203;-75
2021/12/26 11:11:11;;;;;;;6.83;5.50;;;3.40;93.80;;;;;;5012225;28;20294;-75
2021/12/26 11:14:06;;;;;;;7.07;5.80;;;2.60;94.20;;;;;;5010060;28;20231;-75
2021/12/26 11:16:38;;;;;;;7.60;5.53;;;2.90;95.20;;;;;;5012298;28;20766;-74
2021/12/26 11:19:06;;;;;;;11.03;7.80;;;2.70;94.80;;;;;;5008780;28;20199;-75
2021/12/26 11:21:45;;;;;;;7.20;5.50;;;3.10;95.30;;;;;;5014206;28;20274;-74
2021/12/26 11:24:14;;;;;;;6.63;5.43;;;3.10;95.00;;;;;;5031610;28;20191;-74
2021/12/26 11:26:42;;;;;;;6.67;5.23;;;2.90;95.40;;;;;;5005113;28;20242;-75
2021/12/26 11:29:10;;;;;;;6.40;5.50;;;2.80;95.20;;;;;;5020488;28;20206;-75
2021/12/26 11:31:37;;;;;;;6.63;5.50;;;2.90;95.20;;;;;;5013154;28;20575;-75
2021/12/26 11:34:10;;;;;;;9.30;5.93;;;2.50;95.70;;;;;;5012027;28;20243;-75
2021/12/26 11:36:37;;;;;;;6.80;5.80;;;2.40;96.60;;;;;;5016852;28;20227;-73
2021/12/26 11:39:26;;;;;;;9.47;6.17;;;2.60;96.70;;;;;;5031750;28;20198;-75
2021/12/26 11:42:29;;;;;;;8.73;6.20;;;2.70;96.80;;;;;;5033221;28;20180;-74
2021/12/26 11:45:22;;;;;;;8.77;6.37;;;2.70;96.80;;;;;;4999646;28;20206;-75
2021/12/26 11:48:37;;;;;;;9.87;6.90;;;2.50;97.20;;;;;;5032708;28;20195;-74
2021/12/26 11:51:47;;;;;;;8.87;6.60;;;2.50;97.50;;;;;;5032066;28;20198;-77
2021/12/26 11:54:59;;;;;;;7.83;6.50;;;2.60;97.70;;;;;;5030289;28;20212;-76
2021/12/26 11:57:51;;;;;;;7.97;6.37;;;2.70;97.40;;;;;;5009374;28;20218;-75
2021/12/26 12:00:25;;;;;;;7.30;6.37;;;2.50;97.50;;;;;;5015966;28;20203;-75
2021/12/26 12:02:55;;;;;;;9.77;6.67;;;2.40;98.40;;;;;;5038999;28;20196;-75
2021/12/26 12:05:25;;;;;;;9.63;7.00;;;2.40;98.70;;;;;;5022974;28;20225;-75
2021/12/26 12:08:26;;;;;;;7.47;6.37;;;2.30;99.10;;;;;;5006578;28;20233;-75
2021/12/26 12:11:01;;;;;;;8.50;6.27;;;2.20;99.70;;;;;;5026242;28;20213;-75
2021/12/26 12:13:53;;;;;;;7.97;6.43;;;2.80;99.90;;;;;;5009927;28;20219;-75
2021/12/26 12:16:34;;;;;;;9.20;7.27;;;2.80;99.90;;;;;;5026615;28;20677;-72
2021/12/26 12:19:05;;;;;;;9.03;6.17;;;2.90;99.40;;;;;;5014348;28;20203;-76
2021/12/26 12:21:40;;;;;;;7.73;6.37;;;3.10;98.50;;;;;;5025667;28;20205;-75
2021/12/26 12:24:10;;;;;;;8.60;7.37;;;3.00;98.20;;;;;;5012500;28;20178;-75
2021/12/26 12:26:42;;;;;;;7.80;6.97;;;3.10;98.40;;;;;;5021949;28;20221;-72
2021/12/26 12:29:10;;;;;;;8.33;7.43;;;3.00;98.60;;;;;;4997361;28;20657;-74
2021/12/26 12:31:38;;;;;;;7.90;6.60;;;2.30;99.70;;;;;;5027573;28;20209;-75
2021/12/26 12:34:07;;;;;;;7.70;6.90;;;2.70;99.90;;;;;;5014542;28;20229;-75
2021/12/26 12:36:38;;;;;;;8.00;7.07;;;2.80;99.60;;;;;;5012974;28;20233;-75
2021/12/26 12:39:15;;;;;;;9.23;7.30;;;2.60;99.80;;;;;;5025397;28;20190;-75
2021/12/26 12:41:47;;;;;;;11.67;8.37;;;2.50;99.90;;;;;;5017781;28;20210;-75
2021/12/26 12:44:27;;;;;;;9.10;7.90;;;2.50;99.90;;;;;;5023241;28;20193;-76
2021/12/26 12:47:04;;;;;;;8.87;7.30;;;2.60;99.90;;;;;;5048207;28;20214;-75
2021/12/26 12:49:47;;;;;;;10.93;7.87;;;2.70;99.90;;;;;;5006298;28;20206;-75
2021/12/26 12:52:37;;;;;;;10.37;8.00;;;2.60;99.90;;;;;;5032681;28;20534;-75
2021/12/26 12:55:42;;;;;;;9.30;8.00;;;2.70;99.90;;;;;;5015971;28;20205;-75
2021/12/26 12:58:23;;;;;;;8.80;7.73;;;2.90;99.90;;;;;;5011511;28;20206;-75
2021/12/26 13:00:51;;;;;;;10.43;7.63;;;3.00;99.90;;;;;;5040617;28;20201;-74
2021/12/26 13:03:20;;;;;;;10.50;7.97;;;3.00;99.90;;;;;;5035336;28;20201;-75
2021/12/26 13:05:49;;;;;;;8.90;7.53;;;3.10;99.90;;;;;;5017190;28;20203;-75
2021/12/26 13:08:19;;;;;;;8.43;7.20;;;3.10;99.90;;;;;;5025749;28;20547;-75
2021/12/26 13:10:53;;;;;;;7.97;7.17;;;3.10;99.90;;;;;;5001957;28;20670;-75
2021/12/26 13:13:22;;;;;;;9.30;8.27;;;3.00;99.90;;;;;;5029900;28;20206;-75
2021/12/26 13:15:53;;;;;;;9.50;7.30;;;3.00;99.90;;;;;;5029264;28;20191;-75
2021/12/26 13:18:22;;;;;;;10.40;7.93;;;3.10;99.90;;;;;;5034155;28;20206;-75
2021/12/26 13:20:51;;;;;;;10.23;8.17;;;2.80;99.90;;;;;;5016745;28;20207;-75
2021/12/26 13:23:20;;;;;;;9.37;7.87;;;2.90;99.90;;;;;;5034962;28;20191;-74
2021/12/26 13:25:48;;;;;;;11.13;8.27;;;2.90;99.90;;;;;;5034856;28;20687;-76
2021/12/26 13:28:26;;;;;;;8.67;7.50;;;2.70;99.90;;;;;;5032991;28;20203;-75
2021/12/26 13:30:56;;;;;;;9.50;8.00;;;2.80;99.90;;;;;;5034702;28;20191;-75